createdAt,value
2022-11-02T00:01:00.922Z,99.90
2022-11-02T00:03:37.821Z,101.33
2022-11-02T00:06:12.520Z,100.73
2022-11-02T00:08:45.825Z,99.57
2022-11-02T00:11:19.408Z,98.90
2022-11-02T00:13:54.088Z,101.10
2022-11-02T00:16:29.919Z,98.20
2022-11-02T00:19:05.901Z,99.13
2022-11-02T00:21:40.370Z,97.50
2022-11-02T00:24:15.270Z,100.27
2022-11-02T00:26:48.721Z,96.90
2022-11-02T00:29:27.851Z,97.47
2022-11-02T00:32:06.132Z,96.37
2022-11-02T00:34:39.687Z,94.97
2022-11-02T00:37:14.065Z,97.53
2022-11-02T00:39:48.357Z,100.03
2022-11-02T00:42:21.989Z,98.17
2022-11-02T00:44:55.658Z,98.27
2022-11-02T00:47:32.734Z,97.97
2022-11-02T00:50:07.604Z,96.47
2022-11-02T00:52:44.879Z,96.20
2022-11-02T00:55:20.515Z,90.43
2022-11-02T00:57:55.434Z,99.03
2022-11-02T01:00:31.614Z,100.23
2022-11-02T01:03:09.335Z,92.90
2022-11-02T01:05:45.233Z,97.07
2022-11-02T01:08:20.031Z,93.00
2022-11-02T01:10:54.410Z,93.63
2022-11-02T01:13:29.934Z,93.70
2022-11-02T01:16:07.045Z,94.40
2022-11-02T01:18:45.024Z,93.47
2022-11-02T01:21:20.932Z,91.40
2022-11-02T01:23:59.339Z,91.83
2022-11-02T01:26:33.679Z,95.53
2022-11-02T01:29:09.381Z,93.83
2022-11-02T01:31:44.854Z,94.60
2022-11-02T01:34:22.463Z,98.73
2022-11-02T01:36:56.820Z,93.83
2022-11-02T01:39:30.652Z,83.83
2022-11-02T01:42:05.852Z,89.60
2022-11-02T01:44:42.465Z,86.93
2022-11-02T01:47:23.165Z,86.27
2022-11-02T01:50:02.054Z,87.20
2022-11-02T01:52:40.129Z,85.50
2022-11-02T01:55:18.217Z,86.57
2022-11-02T01:57:55.863Z,88.00
2022-11-02T02:00:30.343Z,86.27
2022-11-02T02:03:10.882Z,85.00
2022-11-02T02:05:50.275Z,86.20
2022-11-02T02:08:29.455Z,84.13
2022-11-02T02:11:04.051Z,81.53
2022-11-02T02:13:39.341Z,79.07
2022-11-02T02:16:20.024Z,78.70
2022-11-02T02:18:59.228Z,80.00
2022-11-02T02:21:54.294Z,82.03
2022-11-02T02:24:44.797Z,80.27
2022-11-02T02:27:25.900Z,81.00
2022-11-02T02:30:10.747Z,83.07
2022-11-02T02:32:51.827Z,79.40
2022-11-02T02:35:33.581Z,75.87
2022-11-02T02:38:10.769Z,74.60
2022-11-02T02:40:51.378Z,78.80
2022-11-02T02:43:34.205Z,82.33
2022-11-02T02:46:16.579Z,80.63
2022-11-02T02:48:53.719Z,77.47
2022-11-02T02:51:31.920Z,79.83
2022-11-02T02:54:09.781Z,82.60
2022-11-02T02:59:27.285Z,75.53
2022-11-02T03:02:06.402Z,78.10
2022-11-02T03:04:41.071Z,71.17
2022-11-02T03:07:17.913Z,75.90
2022-11-02T03:10:01.499Z,74.00
2022-11-02T03:12:47.105Z,77.10
2022-11-02T03:15:31.860Z,75.70
2022-11-02T03:18:16.281Z,73.23
2022-11-02T03:21:01.960Z,70.13
2022-11-02T03:23:41.915Z,73.30
2022-11-02T03:26:23.681Z,73.57
2022-11-02T03:29:05.516Z,72.07
2022-11-02T03:31:46.210Z,69.00
2022-11-02T03:34:32.233Z,68.20
2022-11-02T03:37:11.319Z,69.93
2022-11-02T03:39:49.806Z,70.80
2022-11-02T03:42:27.960Z,67.80
2022-11-02T03:45:10.646Z,65.07
2022-11-02T03:47:48.744Z,64.90
2022-11-02T03:50:28.809Z,69.03
2022-11-02T03:53:08.937Z,61.87
2022-11-02T03:55:46.497Z,55.90
2022-11-02T03:58:21.306Z,57.03
2022-11-02T04:00:59.606Z,58.90
2022-11-02T04:03:37.312Z,62.73
2022-11-02T04:06:14.210Z,62.60
2022-11-02T04:08:51.216Z,60.73
2022-11-02T04:11:43.487Z,61.53
2022-11-02T04:14:36.006Z,63.63
2022-11-02T04:17:26.958Z,69.47
2022-11-02T04:20:04.539Z,63.77
2022-11-02T04:22:56.695Z,65.13
2022-11-02T04:25:31.979Z,66.53
2022-11-02T04:28:21.298Z,66.23
2022-11-02T04:31:03.168Z,61.80
2022-11-02T04:33:42.630Z,63.43
2022-11-02T04:36:20.405Z,63.60
2022-11-02T04:38:59.923Z,65.03
2022-11-02T04:41:48.837Z,67.13
2022-11-02T04:44:30.945Z,64.00
2022-11-02T04:47:12.470Z,67.63
2022-11-02T04:49:47.039Z,65.67
2022-11-02T04:52:23.775Z,68.37
2022-11-02T04:55:00.530Z,67.50
2022-11-02T04:57:34.863Z,66.20
2022-11-02T05:00:10.065Z,68.20
2022-11-02T05:02:44.112Z,65.03
2022-11-02T05:05:19.896Z,66.83
2022-11-02T05:07:56.301Z,66.93
2022-11-02T05:10:32.325Z,65.13
2022-11-02T05:13:06.681Z,66.83
2022-11-02T05:15:46.049Z,63.83
2022-11-02T05:20:57.220Z,64.63
2022-11-02T05:23:34.862Z,65.80
2022-11-02T05:26:14.091Z,69.23
2022-11-02T05:28:52.539Z,66.90
2022-11-02T05:31:29.491Z,65.73
2022-11-02T05:34:05.852Z,66.90
2022-11-02T05:36:41.205Z,61.53
2022-11-02T05:39:16.272Z,60.50
2022-11-02T05:41:52.649Z,59.20
2022-11-02T05:44:27.906Z,61.47
2022-11-02T05:47:02.310Z,60.77
2022-11-02T05:49:36.135Z,62.70
2022-11-02T05:52:12.246Z,61.10
2022-11-02T05:54:46.257Z,60.87
2022-11-02T05:57:23.794Z,59.40
2022-11-02T05:59:59.141Z,60.77
2022-11-02T06:02:34.242Z,59.23
2022-11-02T06:05:09.470Z,58.73
2022-11-02T06:07:43.606Z,58.43
2022-11-02T06:10:18.183Z,56.20
2022-11-02T06:13:02.041Z,58.30
2022-11-02T06:15:38.726Z,62.50
2022-11-02T06:18:12.644Z,62.70
2022-11-02T06:20:47.255Z,64.13
2022-11-02T06:23:21.504Z,62.37
2022-11-02T06:25:59.767Z,63.30
2022-11-02T06:28:35.890Z,62.30
2022-11-02T06:31:09.579Z,64.57
2022-11-02T06:33:43.987Z,60.83
2022-11-02T06:36:19.497Z,64.23
2022-11-02T06:38:54.149Z,63.97
2022-11-02T06:41:28.574Z,64.37
2022-11-02T06:44:04.952Z,62.37
2022-11-02T06:46:39.061Z,62.80
2022-11-02T06:49:16.731Z,66.70
2022-11-02T06:51:53.289Z,64.73
2022-11-02T06:54:26.925Z,65.53
2022-11-02T06:57:02.413Z,64.57
2022-11-02T06:59:38.839Z,64.27
2022-11-02T07:02:16.085Z,61.67
2022-11-02T07:04:50.678Z,65.80
2022-11-02T07:07:24.543Z,62.60
2022-11-02T07:09:58.702Z,62.80
2022-11-02T07:12:34.180Z,64.93
2022-11-02T07:15:10.890Z,61.50
2022-11-02T07:17:46.368Z,61.83
2022-11-02T07:20:21.509Z,60.83
2022-11-02T07:23:00.223Z,62.20
2022-11-02T07:25:35.657Z,59.77
2022-11-02T07:28:11.399Z,59.77
2022-11-02T07:30:47.546Z,56.63
2022-11-02T07:33:22.801Z,58.13
2022-11-02T07:35:56.920Z,59.60
2022-11-02T07:38:30.914Z,59.57
2022-11-02T07:41:05.194Z,59.40
2022-11-02T07:43:43.027Z,61.80
2022-11-02T07:46:28.714Z,61.93
2022-11-02T07:49:02.616Z,60.93
2022-11-02T07:51:37.210Z,60.70
2022-11-02T07:54:12.461Z,60.53
2022-11-02T07:56:46.215Z,60.13
2022-11-02T07:59:20.675Z,60.97
2022-11-02T08:01:56.349Z,60.83
2022-11-02T08:04:31.948Z,59.73
2022-11-02T08:07:06.810Z,61.90
2022-11-02T08:09:40.598Z,61.93
2022-11-02T08:12:14.716Z,61.70
2022-11-02T08:14:49.519Z,60.97
2022-11-02T08:17:25.566Z,59.73
2022-11-02T08:19:59.783Z,60.47
2022-11-02T08:22:33.723Z,59.70
2022-11-02T08:25:08.207Z,59.07
2022-11-02T08:27:42.452Z,59.30
2022-11-02T08:30:21.171Z,59.53
2022-11-02T08:32:58.849Z,60.67
2022-11-02T08:35:34.371Z,60.07
2022-11-02T08:38:09.971Z,59.37
2022-11-02T08:40:44.679Z,60.37
2022-11-02T08:43:19.586Z,59.93
2022-11-02T08:46:13.865Z,58.67
2022-11-02T08:48:52.050Z,58.57
2022-11-02T08:51:25.541Z,59.33
2022-11-02T08:53:59.359Z,58.37
2022-11-02T08:56:35.292Z,59.20
2022-11-02T08:59:09.194Z,59.33
2022-11-02T09:01:44.454Z,58.77
2022-11-02T09:04:20.480Z,58.97
2022-11-02T09:06:54.455Z,60.17
2022-11-02T09:09:29.684Z,59.70
2022-11-02T09:12:03.177Z,60.30
2022-11-02T09:14:37.744Z,58.47
2022-11-02T09:17:11.143Z,58.07
2022-11-02T09:19:47.724Z,58.23
2022-11-02T09:22:21.946Z,57.70
2022-11-02T09:24:56.235Z,58.67
2022-11-02T09:27:30.359Z,58.70
2022-11-02T09:30:06.229Z,57.90
2022-11-02T09:32:40.999Z,56.47
2022-11-02T09:35:17.919Z,59.53
2022-11-02T09:37:52.782Z,57.00
2022-11-02T09:40:29.509Z,57.37
2022-11-02T09:43:14.812Z,56.93
2022-11-02T09:45:59.140Z,56.03
2022-11-02T09:48:36.480Z,57.00
2022-11-02T09:51:15.577Z,54.93
2022-11-02T09:53:58.666Z,58.43
2022-11-02T09:56:34.784Z,57.63
2022-11-02T09:59:17.616Z,57.57
2022-11-02T10:02:05.213Z,54.80
2022-11-02T10:05:13.495Z,58.20
2022-11-02T10:08:18.716Z,58.13
2022-11-02T10:11:08.032Z,56.53
2022-11-02T10:13:52.533Z,56.13
2022-11-02T10:16:35.749Z,56.97
2022-11-02T10:19:17.129Z,53.63
2022-11-02T10:21:53.727Z,56.03
2022-11-02T10:24:44.889Z,56.67
2022-11-02T10:27:24.890Z,54.43
2022-11-02T10:30:03.485Z,53.53
2022-11-02T10:32:40.838Z,55.57
2022-11-02T10:35:37.171Z,54.87
2022-11-02T10:38:28.204Z,55.57
2022-11-02T10:41:28.946Z,55.33
2022-11-02T10:44:21.357Z,57.00
2022-11-02T10:47:07.464Z,54.97
2022-11-02T10:49:58.892Z,56.80
2022-11-02T10:52:39.289Z,55.20
2022-11-02T10:55:25.870Z,53.87
2022-11-02T10:58:06.183Z,56.43
2022-11-02T11:00:41.940Z,57.33
2022-11-02T11:03:17.556Z,56.60
2022-11-02T11:06:05.607Z,54.00
2022-11-02T11:08:44.781Z,55.77
2022-11-02T11:11:24.091Z,55.63
2022-11-02T11:20:05.926Z,55.47
2022-11-02T11:22:44.058Z,54.13
2022-11-02T11:25:34.907Z,54.87
2022-11-02T11:28:28.457Z,55.43
2022-11-02T11:31:24.242Z,55.90
2022-11-02T11:34:01.700Z,54.20
2022-11-02T11:36:37.700Z,54.63
2022-11-02T11:39:29.934Z,55.37
2022-11-02T11:42:04.180Z,53.83
2022-11-02T11:44:38.840Z,54.17
2022-11-02T11:47:16.712Z,54.67
2022-11-02T11:50:08.501Z,54.37
2022-11-02T11:52:47.977Z,53.70
2022-11-02T11:55:30.959Z,56.10
2022-11-02T11:58:17.462Z,53.53
2022-11-02T12:01:09.188Z,55.83
2022-11-02T12:04:02.802Z,55.57
2022-11-02T12:06:45.584Z,55.47
2022-11-02T12:09:29.347Z,55.80
2022-11-02T12:12:12.549Z,55.80
2022-11-02T12:14:55.301Z,55.93
2022-11-02T12:17:46.998Z,59.53
2022-11-02T12:20:54.150Z,57.20
2022-11-02T12:24:04.326Z,57.50
2022-11-02T12:26:53.465Z,57.23
2022-11-02T12:29:52.870Z,59.17
2022-11-02T12:32:41.241Z,60.53
2022-11-02T12:35:37.306Z,58.77
2022-11-02T12:38:28.354Z,60.00
2022-11-02T12:41:46.431Z,58.80
2022-11-02T12:45:29.124Z,58.27
2022-11-02T12:48:37.652Z,58.77
2022-11-02T12:52:23.348Z,60.27
2022-11-02T12:58:52.443Z,60.40
2022-11-02T13:05:37.344Z,57.53
2022-11-02T13:09:19.057Z,58.13
2022-11-02T13:12:54.269Z,56.37
2022-11-02T13:16:21.754Z,59.20
2022-11-02T13:19:56.151Z,57.97
2022-11-02T13:23:33.646Z,58.97
2022-11-02T13:26:57.425Z,59.13
2022-11-02T13:33:49.605Z,50.00
2022-11-02T13:36:55.259Z,51.43
2022-11-02T13:40:11.535Z,52.83
2022-11-02T13:47:24.459Z,54.93
2022-11-02T13:53:42.924Z,57.40
2022-11-02T13:56:57.369Z,59.47
2022-11-02T14:00:05.761Z,59.10
2022-11-02T14:03:07.065Z,58.47
2022-11-02T14:13:27.475Z,57.90
2022-11-02T14:16:26.943Z,58.03
2022-11-02T14:23:27.121Z,56.90
2022-11-02T14:27:05.855Z,59.23
2022-11-02T14:37:48.003Z,64.37
2022-11-02T14:41:02.883Z,66.17
2022-11-02T14:44:46.805Z,68.60
2022-11-02T14:50:56.312Z,72.80
2022-11-02T14:54:05.353Z,74.17
2022-11-02T15:01:16.225Z,75.53
2022-11-02T15:04:34.991Z,75.23
2022-11-02T15:07:45.197Z,73.07
2022-11-02T15:11:18.994Z,75.40
2022-11-02T15:15:19.018Z,71.40
2022-11-02T15:18:48.156Z,70.60
2022-11-02T15:21:52.321Z,66.97
2022-11-02T15:25:08.581Z,66.80
2022-11-02T15:31:33.279Z,66.20
2022-11-02T15:34:44.412Z,65.37
2022-11-02T15:38:16.020Z,63.87
2022-11-02T15:45:47.462Z,62.40
2022-11-02T15:48:43.703Z,63.67
2022-11-02T15:51:31.272Z,63.80
2022-11-02T15:54:26.148Z,64.50
2022-11-02T15:57:13.330Z,61.57
2022-11-02T16:00:08.494Z,62.97
2022-11-02T16:02:44.913Z,63.57
2022-11-02T16:05:28.872Z,64.00
2022-11-02T16:08:10.944Z,63.03
2022-11-02T16:10:45.854Z,64.77
2022-11-02T16:13:24.953Z,63.80
2022-11-02T16:16:14.958Z,62.10
2022-11-02T16:18:52.274Z,61.40
2022-11-02T16:21:28.417Z,60.87
2022-11-02T16:24:06.077Z,59.27
2022-11-02T16:26:41.417Z,58.90
2022-11-02T16:29:29.895Z,57.23
2022-11-02T16:32:04.356Z,56.93
2022-11-02T16:34:39.546Z,55.57
2022-11-02T16:37:18.802Z,54.17
2022-11-02T16:39:54.377Z,53.93
2022-11-02T16:42:30.559Z,55.43
2022-11-02T16:45:07.902Z,52.87
2022-11-02T16:47:46.165Z,52.37
2022-11-02T16:50:29.982Z,50.73
2022-11-02T16:53:04.555Z,48.53
2022-11-02T16:55:45.555Z,50.53
2022-11-02T16:58:26.383Z,49.23
2022-11-02T17:01:06.703Z,50.20
2022-11-02T17:03:42.822Z,48.93
2022-11-02T17:06:17.341Z,50.13
2022-11-02T17:08:56.930Z,49.53
2022-11-02T17:11:31.242Z,47.40
2022-11-02T17:14:06.530Z,47.23
2022-11-02T17:17:01.787Z,48.23
2022-11-02T17:20:00.399Z,46.90
2022-11-02T17:22:41.681Z,48.23
2022-11-02T17:25:23.503Z,46.93
2022-11-02T17:27:58.843Z,47.90
2022-11-02T17:30:47.047Z,49.30
2022-11-02T17:33:35.467Z,48.87
2022-11-02T17:36:12.883Z,45.93
2022-11-02T17:38:46.347Z,47.47
2022-11-02T17:41:37.953Z,48.70
2022-11-02T17:44:19.977Z,47.30
2022-11-02T17:46:54.167Z,50.70
2022-11-02T17:49:29.978Z,50.53
2022-11-02T17:52:03.606Z,49.23
2022-11-02T17:54:37.191Z,54.30
2022-11-02T17:57:15.401Z,54.47
2022-11-02T17:59:49.825Z,57.83
2022-11-02T18:02:24.073Z,59.07
2022-11-02T18:04:59.912Z,59.03
2022-11-02T18:07:34.025Z,63.00
2022-11-02T18:10:08.722Z,63.97
2022-11-02T18:12:42.021Z,65.27
2022-11-02T18:15:20.491Z,66.77
2022-11-02T18:17:54.906Z,65.53
2022-11-02T18:20:30.941Z,68.23
2022-11-02T18:23:05.631Z,66.93
2022-11-02T18:25:40.325Z,68.87
2022-11-02T18:28:14.890Z,68.07
2022-11-02T18:30:48.991Z,70.83
2022-11-02T18:33:23.332Z,70.63
2022-11-02T18:36:08.425Z,71.00
2022-11-02T18:38:42.026Z,70.53
2022-11-02T18:41:35.894Z,72.57
2022-11-02T18:44:15.217Z,70.63
2022-11-02T18:46:50.505Z,70.93
2022-11-02T18:49:24.547Z,70.73
2022-11-02T18:52:00.049Z,71.87
2022-11-02T18:54:33.424Z,69.70
2022-11-02T18:57:07.182Z,67.90
2022-11-02T18:59:40.217Z,69.20
2022-11-02T19:02:16.711Z,68.80
2022-11-02T19:04:51.836Z,65.50
2022-11-02T19:07:43.393Z,68.33
2022-11-02T19:10:16.560Z,68.53
2022-11-02T19:12:50.604Z,67.63
2022-11-02T19:15:23.874Z,66.53
2022-11-02T19:17:57.519Z,63.67
2022-11-02T19:20:31.207Z,63.90
2022-11-02T19:23:07.170Z,63.37
2022-11-02T19:25:42.062Z,62.70
2022-11-02T19:28:15.712Z,63.10
2022-11-02T19:30:49.493Z,62.27
2022-11-02T19:33:24.003Z,60.67
2022-11-02T19:36:01.985Z,60.63
2022-11-02T19:38:40.801Z,62.23
2022-11-02T19:41:16.644Z,63.07
2022-11-02T19:43:51.458Z,60.07
2022-11-02T19:46:26.494Z,62.37
2022-11-02T19:49:01.673Z,61.77
2022-11-02T19:51:36.724Z,61.63
2022-11-02T19:54:13.498Z,61.53
2022-11-02T19:56:47.800Z,59.13
2022-11-02T19:59:22.649Z,60.47
2022-11-02T20:01:56.439Z,60.27
2022-11-02T20:04:29.968Z,58.60
2022-11-02T20:09:44.038Z,59.20
2022-11-02T20:12:18.109Z,57.90
2022-11-02T20:14:51.583Z,57.63
2022-11-02T20:17:31.848Z,56.97
2022-11-02T20:20:12.489Z,56.40
2022-11-02T20:22:47.239Z,57.93
2022-11-02T20:25:24.194Z,55.77
2022-11-02T20:27:59.078Z,55.53
2022-11-02T20:30:32.352Z,54.90
2022-11-02T20:33:06.387Z,53.77
2022-11-02T20:35:41.167Z,54.13
2022-11-02T20:38:15.043Z,55.47
2022-11-02T20:40:50.500Z,52.77
2022-11-02T20:43:24.564Z,52.60
2022-11-02T20:46:35.373Z,53.33
2022-11-02T20:49:09.036Z,51.90
2022-11-02T20:51:55.384Z,49.83
2022-11-02T20:54:30.866Z,50.60
2022-11-02T20:57:07.941Z,51.23
2022-11-02T20:59:41.488Z,51.47
2022-11-02T21:02:16.644Z,50.83
2022-11-02T21:04:50.313Z,50.47
2022-11-02T21:07:24.460Z,49.50
2022-11-02T21:09:58.010Z,50.40
2022-11-02T21:12:49.292Z,50.70
2022-11-02T21:15:23.032Z,51.50
2022-11-02T21:17:58.681Z,50.67
2022-11-02T21:20:34.712Z,48.27
2022-11-02T21:23:09.980Z,50.37
2022-11-02T21:25:43.838Z,49.73
2022-11-02T21:28:20.423Z,49.20
2022-11-02T21:30:53.880Z,50.03
2022-11-02T21:33:27.100Z,49.50
2022-11-02T21:36:00.674Z,49.33
2022-11-02T21:38:35.735Z,50.00
2022-11-02T21:41:12.019Z,49.47
2022-11-02T21:43:46.957Z,49.87
2022-11-02T21:46:20.902Z,50.63
2022-11-02T21:48:55.214Z,50.03
2022-11-02T21:51:30.195Z,49.47
2022-11-02T21:54:04.314Z,49.47
2022-11-02T21:56:38.103Z,49.67
2022-11-02T21:59:13.446Z,50.20
2022-11-02T22:01:51.327Z,49.77
2022-11-02T22:04:26.986Z,50.03
2022-11-02T22:07:01.681Z,48.63
2022-11-02T22:09:36.774Z,48.73
2022-11-02T22:12:26.524Z,47.80
2022-11-02T22:15:02.660Z,47.57
2022-11-02T22:17:49.138Z,47.97
2022-11-02T22:20:22.983Z,48.27
2022-11-02T22:22:57.303Z,47.00
2022-11-02T22:25:31.870Z,47.47
2022-11-02T22:28:05.144Z,48.50
2022-11-02T22:30:42.627Z,48.10
2022-11-02T22:33:16.358Z,47.60
2022-11-02T22:35:50.902Z,48.43
2022-11-02T22:38:40.162Z,45.80
2022-11-02T22:41:14.607Z,46.17
2022-11-02T22:43:48.359Z,47.77
2022-11-02T22:46:24.489Z,46.50
2022-11-02T22:48:59.970Z,49.83
2022-11-02T22:51:35.341Z,45.13
2022-11-02T22:54:11.087Z,46.17
2022-11-02T22:56:46.031Z,46.17
2022-11-02T22:59:20.821Z,43.27
2022-11-02T23:01:57.005Z,42.83
2022-11-02T23:04:30.990Z,43.53
2022-11-02T23:07:04.531Z,43.27
2022-11-02T23:09:38.280Z,42.37
2022-11-02T23:12:10.280Z,41.43
2022-11-02T23:14:43.801Z,41.63
2022-11-02T23:17:22.898Z,40.27
2022-11-02T23:19:54.873Z,41.37
2022-11-02T23:22:44.057Z,39.13
2022-11-02T23:25:19.067Z,39.83
2022-11-02T23:28:14.031Z,41.10
2022-11-02T23:31:04.376Z,39.27
2022-11-02T23:33:41.972Z,40.37
2022-11-02T23:36:14.846Z,40.33
2022-11-02T23:39:05.170Z,40.67
2022-11-02T23:41:42.755Z,39.40
2022-11-02T23:44:17.287Z,40.30
2022-11-02T23:46:53.154Z,41.03
2022-11-02T23:49:29.431Z,40.83
2022-11-02T23:52:18.989Z,40.53
2022-11-02T23:55:23.752Z,40.97
2022-11-02T23:57:58.983Z,41.13
